createdAt,value
2023-03-02T00:02:02.285Z,99.90
2023-03-02T00:04:37.178Z,99.90
2023-03-02T00:07:10.050Z,99.90
2023-03-02T00:09:39.823Z,99.90
2023-03-02T00:12:09.409Z,99.90
2023-03-02T00:14:38.251Z,99.90
2023-03-02T00:17:10.600Z,99.90
2023-03-02T00:19:39.478Z,99.90
2023-03-02T00:22:10.078Z,99.90
2023-03-02T00:24:39.254Z,99.90
2023-03-02T00:27:08.109Z,99.90
2023-03-02T00:29:36.489Z,99.90
2023-03-02T00:34:35.981Z,99.90
2023-03-02T00:39:33.150Z,99.90
2023-03-02T00:42:01.743Z,99.90
2023-03-02T00:46:58.718Z,99.90
2023-03-02T00:51:57.560Z,99.90
2023-03-02T00:54:25.925Z,99.90
2023-03-02T00:56:54.719Z,99.90
2023-03-02T00:59:27.451Z,99.90
2023-03-02T01:02:09.209Z,99.90
2023-03-02T01:04:41.220Z,99.90
2023-03-02T01:07:14.827Z,99.90
2023-03-02T01:09:46.604Z,99.90
2023-03-02T01:12:15.790Z,99.90
2023-03-02T01:14:48.124Z,99.90
2023-03-02T01:17:16.958Z,99.90
2023-03-02T01:19:45.539Z,99.90
2023-03-02T01:22:16.188Z,99.90
2023-03-02T01:24:45.089Z,99.90
2023-03-02T01:27:13.476Z,99.90
2023-03-02T01:29:41.811Z,99.90
2023-03-02T01:32:10.423Z,99.90
2023-03-02T01:34:39.590Z,99.90
2023-03-02T01:37:08.172Z,99.90
2023-03-02T01:39:37.953Z,99.90
2023-03-02T01:42:06.793Z,99.90
2023-03-02T01:44:44.818Z,99.90
2023-03-02T01:47:21.419Z,99.90
2023-03-02T01:50:02.829Z,99.90
2023-03-02T01:52:38.953Z,99.90
2023-03-02T01:55:17.033Z,99.90
2023-03-02T01:57:53.358Z,99.90
2023-03-02T02:00:28.181Z,99.90
2023-03-02T02:03:08.847Z,99.90
2023-03-02T02:05:42.326Z,99.90
2023-03-02T02:08:11.693Z,99.90
2023-03-02T02:10:42.974Z,99.90
2023-03-02T02:13:12.208Z,99.90
2023-03-02T02:15:42.272Z,99.90
2023-03-02T02:18:11.271Z,99.90
2023-03-02T02:20:45.359Z,99.90
2023-03-02T02:23:28.671Z,99.90
2023-03-02T02:26:18.341Z,99.90
2023-03-02T02:28:57.830Z,99.90
2023-03-02T02:31:37.528Z,99.90
2023-03-02T02:34:14.715Z,99.90
2023-03-02T02:36:49.109Z,99.90
2023-03-02T02:39:25.400Z,99.90
2023-03-02T02:42:01.604Z,99.90
2023-03-02T02:44:32.229Z,99.90
2023-03-02T02:47:01.870Z,99.90
2023-03-02T02:49:35.391Z,99.90
2023-03-02T02:52:06.679Z,99.90
2023-03-02T02:54:38.104Z,99.90
2023-03-02T02:57:10.396Z,99.90
2023-03-02T02:59:46.277Z,99.90
2023-03-02T03:02:20.810Z,99.90
2023-03-02T03:04:50.008Z,99.90
2023-03-02T03:07:23.333Z,99.90
2023-03-02T03:10:02.629Z,99.90
2023-03-02T03:12:34.927Z,99.90
2023-03-02T03:15:05.582Z,99.90
2023-03-02T03:17:33.968Z,99.90
2023-03-02T03:20:07.681Z,99.90
2023-03-02T03:22:39.932Z,99.90
2023-03-02T03:25:15.636Z,99.90
2023-03-02T03:27:48.606Z,99.90
2023-03-02T03:30:18.956Z,99.90
2023-03-02T03:32:48.334Z,99.90
2023-03-02T03:35:18.058Z,99.90
2023-03-02T03:37:48.531Z,99.90
2023-03-02T03:40:17.862Z,99.90
2023-03-02T03:42:48.908Z,99.90
2023-03-02T03:45:17.379Z,99.90
2023-03-02T03:47:46.109Z,99.90
2023-03-02T03:50:14.903Z,99.90
2023-03-02T03:52:44.917Z,99.90
2023-03-02T03:55:21.410Z,99.90
2023-03-02T03:57:52.677Z,99.90
2023-03-02T04:00:22.979Z,99.90
2023-03-02T04:02:57.438Z,99.90
2023-03-02T04:05:29.163Z,99.90
2023-03-02T04:10:31.805Z,99.90
2023-03-02T04:13:01.807Z,99.90
2023-03-02T04:15:30.766Z,99.90
2023-03-02T04:18:01.491Z,99.90
2023-03-02T04:20:30.771Z,99.90
2023-03-02T04:22:59.890Z,99.90
2023-03-02T04:25:31.293Z,99.90
2023-03-02T04:28:09.933Z,99.90
2023-03-02T04:30:40.880Z,99.90
2023-03-02T04:33:10.151Z,99.90
2023-03-02T04:35:39.162Z,99.90
2023-03-02T04:40:36.404Z,99.90
2023-03-02T04:43:04.733Z,99.90
2023-03-02T04:45:34.897Z,99.90
2023-03-02T04:48:03.970Z,99.90
2023-03-02T04:53:01.118Z,99.90
2023-03-02T04:57:58.516Z,99.90
2023-03-02T05:00:28.952Z,99.90
2023-03-02T05:02:58.987Z,99.90
2023-03-02T05:05:28.198Z,99.90
2023-03-02T05:07:58.605Z,99.90
2023-03-02T05:10:29.266Z,99.90
2023-03-02T05:13:02.809Z,99.90
2023-03-02T05:15:35.927Z,99.90
2023-03-02T05:18:08.796Z,99.90
2023-03-02T05:20:38.348Z,99.90
2023-03-02T05:23:09.865Z,99.90
2023-03-02T05:25:39.614Z,99.90
2023-03-02T05:28:07.982Z,99.90
2023-03-02T05:30:37.885Z,99.90
2023-03-02T05:33:08.178Z,99.90
2023-03-02T05:35:37.150Z,99.90
2023-03-02T05:38:06.660Z,99.90
2023-03-02T05:40:35.617Z,99.90
2023-03-02T05:45:35.890Z,99.90
2023-03-02T05:48:05.644Z,99.90
2023-03-02T05:50:35.700Z,99.90
2023-03-02T05:53:04.153Z,99.90
2023-03-02T05:55:36.860Z,99.90
2023-03-02T05:58:06.134Z,99.90
2023-03-02T06:00:34.568Z,99.90
2023-03-02T06:03:06.083Z,99.90
2023-03-02T06:05:36.744Z,99.90
2023-03-02T06:08:06.198Z,99.90
2023-03-02T06:10:35.221Z,99.90
2023-03-02T06:13:03.656Z,99.90
2023-03-02T06:15:31.944Z,99.90
2023-03-02T06:18:00.291Z,99.90
2023-03-02T06:20:28.595Z,99.90
2023-03-02T06:22:58.525Z,99.90
2023-03-02T06:25:27.227Z,99.90
2023-03-02T06:27:55.584Z,99.90
2023-03-02T06:30:27.921Z,99.90
2023-03-02T06:32:56.673Z,99.90
2023-03-02T06:37:53.685Z,99.90
2023-03-02T06:40:23.524Z,99.90
2023-03-02T06:42:52.053Z,99.90
2023-03-02T06:45:20.573Z,99.90
2023-03-02T06:47:48.850Z,99.90
2023-03-02T06:52:45.890Z,99.90
2023-03-02T06:55:14.268Z,99.90
2023-03-02T06:57:44.136Z,99.90
2023-03-02T07:00:17.323Z,99.90
2023-03-02T07:02:46.307Z,99.90
2023-03-02T07:05:14.906Z,99.90
2023-03-02T07:07:43.644Z,99.90
2023-03-02T07:10:13.649Z,99.90
2023-03-02T07:12:44.052Z,99.90
2023-03-02T07:15:14.530Z,99.90
2023-03-02T07:17:45.121Z,99.90
2023-03-02T07:20:16.428Z,99.90
2023-03-02T07:22:46.132Z,99.90
2023-03-02T07:25:15.214Z,99.90
2023-03-02T07:27:44.912Z,99.90
2023-03-02T07:30:15.425Z,99.90
2023-03-02T07:32:43.797Z,99.90
2023-03-02T07:35:12.088Z,99.90
2023-03-02T07:40:12.432Z,99.90
2023-03-02T07:45:15.563Z,99.90
2023-03-02T07:47:43.985Z,99.90
2023-03-02T07:50:13.425Z,99.90
2023-03-02T07:52:41.854Z,99.90
2023-03-02T07:55:11.433Z,99.90
2023-03-02T07:57:39.755Z,99.90
2023-03-02T08:00:11.984Z,99.90
2023-03-02T08:02:41.816Z,99.90
2023-03-02T08:05:12.189Z,99.90
2023-03-02T08:07:41.107Z,99.90
2023-03-02T08:10:12.157Z,99.90
2023-03-02T08:12:40.560Z,99.90
2023-03-02T08:15:13.192Z,99.90
2023-03-02T08:17:41.559Z,99.90
2023-03-02T08:20:11.629Z,99.90
2023-03-02T08:22:40.095Z,99.90
2023-03-02T08:25:09.473Z,99.90
2023-03-02T08:27:38.275Z,99.90
2023-03-02T08:30:09.522Z,99.90
2023-03-02T08:32:39.766Z,99.90
2023-03-02T08:35:09.613Z,99.90
2023-03-02T08:37:37.913Z,98.40
2023-03-02T08:40:08.135Z,99.60
2023-03-02T08:42:36.468Z,98.30
2023-03-02T08:45:05.775Z,96.40
2023-03-02T08:47:34.144Z,99.60
2023-03-02T08:50:04.277Z,99.40
2023-03-02T08:52:35.252Z,98.10
2023-03-02T08:55:04.376Z,96.10
2023-03-02T08:57:34.788Z,97.20
2023-03-02T09:00:03.397Z,96.00
2023-03-02T09:02:31.757Z,96.30
2023-03-02T09:05:00.173Z,97.60
2023-03-02T09:07:33.136Z,95.00
2023-03-02T09:10:01.911Z,94.10
2023-03-02T09:12:30.372Z,95.10
2023-03-02T09:14:58.815Z,95.10
2023-03-02T09:17:27.224Z,93.60
2023-03-02T09:19:55.489Z,95.70
2023-03-02T09:22:23.896Z,93.70
2023-03-02T09:24:53.988Z,93.20
2023-03-02T09:27:22.357Z,93.50
2023-03-02T09:29:50.734Z,93.90
2023-03-02T09:32:19.141Z,94.10
2023-03-02T09:34:47.799Z,95.10
2023-03-02T09:37:16.256Z,92.40
2023-03-02T09:39:44.713Z,92.70
2023-03-02T09:42:43.509Z,90.90
2023-03-02T09:45:32.878Z,90.90
2023-03-02T09:48:20.870Z,90.40
2023-03-02T09:51:03.279Z,90.70
2023-03-02T09:53:47.838Z,90.60
2023-03-02T09:56:19.830Z,90.40
2023-03-02T09:59:00.298Z,90.60
2023-03-02T10:01:40.467Z,90.20
2023-03-02T10:04:25.473Z,90.70
2023-03-02T10:07:00.755Z,90.70
2023-03-02T10:09:29.302Z,90.80
2023-03-02T10:12:27.548Z,86.90
2023-03-02T10:15:05.368Z,91.10
2023-03-02T10:17:51.972Z,88.80
2023-03-02T10:20:34.066Z,86.30
2023-03-02T10:23:28.454Z,86.60
2023-03-02T10:26:10.018Z,87.20
2023-03-02T10:28:46.731Z,88.80
2023-03-02T10:31:27.620Z,83.70
2023-03-02T10:33:56.613Z,83.70
2023-03-02T10:36:29.026Z,82.80
2023-03-02T10:39:00.537Z,84.60
2023-03-02T10:41:35.407Z,82.40
2023-03-02T10:44:17.079Z,81.40
2023-03-02T10:46:48.026Z,83.40
2023-03-02T10:49:28.912Z,79.10
2023-03-02T10:52:00.752Z,79.50
2023-03-02T10:54:30.403Z,82.30
2023-03-02T10:57:02.430Z,84.50
2023-03-02T10:59:43.644Z,85.70
2023-03-02T11:02:23.974Z,81.90
2023-03-02T11:04:58.437Z,83.10
2023-03-02T11:07:30.396Z,84.60
2023-03-02T11:10:04.960Z,82.60
2023-03-02T11:12:38.311Z,81.30
2023-03-02T11:15:27.902Z,82.90
2023-03-02T11:18:08.969Z,83.40
2023-03-02T11:20:43.423Z,80.10
2023-03-02T11:23:28.423Z,80.20
2023-03-02T11:26:03.177Z,79.40
2023-03-02T11:28:53.284Z,84.00
2023-03-02T11:31:36.665Z,80.10
2023-03-02T11:34:23.733Z,81.50
2023-03-02T11:37:05.238Z,78.80
2023-03-02T11:39:56.067Z,80.30
2023-03-02T11:42:31.037Z,76.20
2023-03-02T11:45:04.994Z,73.90
2023-03-02T11:47:35.258Z,73.00
2023-03-02T11:50:11.661Z,72.60
2023-03-02T11:52:46.367Z,73.10
2023-03-02T11:55:23.482Z,71.50
2023-03-02T11:57:56.500Z,73.50
2023-03-02T12:00:34.999Z,73.50
2023-03-02T12:03:07.301Z,72.30
2023-03-02T12:05:40.390Z,73.60
2023-03-02T12:08:36.106Z,72.00
2023-03-02T12:11:09.121Z,71.10
2023-03-02T12:13:40.577Z,72.00
2023-03-02T12:16:22.464Z,73.50
2023-03-02T12:18:52.082Z,70.30
2023-03-02T12:21:22.969Z,68.40
2023-03-02T12:24:06.429Z,68.30
2023-03-02T12:26:38.400Z,69.60
2023-03-02T12:29:24.472Z,67.20
2023-03-02T12:31:56.085Z,67.90
2023-03-02T12:34:38.925Z,67.60
2023-03-02T12:37:19.422Z,70.30
2023-03-02T12:40:40.349Z,67.30
2023-03-02T12:43:31.996Z,69.60
2023-03-02T12:46:30.514Z,68.30
2023-03-02T12:49:10.910Z,70.00
2023-03-02T12:51:52.501Z,68.60
2023-03-02T12:54:26.512Z,66.50
2023-03-02T12:57:08.990Z,69.50
2023-03-02T12:59:38.121Z,69.50
2023-03-02T13:02:19.079Z,69.80
2023-03-02T13:04:55.472Z,70.10
2023-03-02T13:07:29.128Z,67.80
2023-03-02T13:10:00.312Z,69.10
2023-03-02T13:12:31.305Z,65.90
2023-03-02T13:15:01.388Z,64.10
2023-03-02T13:17:32.760Z,63.90
2023-03-02T13:20:05.024Z,66.20
2023-03-02T13:22:33.953Z,65.90
2023-03-02T13:25:05.560Z,66.60
2023-03-02T13:27:36.311Z,68.20
2023-03-02T13:30:23.344Z,65.90
2023-03-02T13:32:52.091Z,68.70
2023-03-02T13:35:27.133Z,66.70
2023-03-02T13:38:05.692Z,65.60
2023-03-02T13:40:42.195Z,65.50
2023-03-02T13:43:36.908Z,67.10
2023-03-02T13:46:25.776Z,68.50
2023-03-02T13:49:09.616Z,68.60
2023-03-02T13:51:43.281Z,68.10
2023-03-02T13:54:23.514Z,67.30
2023-03-02T13:56:53.710Z,68.50
2023-03-02T13:59:24.373Z,69.10
2023-03-02T14:01:53.174Z,67.90
2023-03-02T14:04:27.312Z,65.90
2023-03-02T14:06:56.513Z,64.60
2023-03-02T14:09:27.271Z,65.10
2023-03-02T14:11:57.857Z,66.20
2023-03-02T14:14:31.460Z,66.00
2023-03-02T14:16:59.884Z,65.80
2023-03-02T14:21:57.335Z,66.40
2023-03-02T14:24:25.791Z,65.30
2023-03-02T14:26:54.349Z,68.00
2023-03-02T14:29:28.093Z,68.10
2023-03-02T14:32:00.249Z,67.30
2023-03-02T14:34:28.972Z,65.10
2023-03-02T14:37:03.832Z,64.80
2023-03-02T14:39:40.213Z,64.50
2023-03-02T14:42:13.722Z,63.30
2023-03-02T14:44:45.904Z,62.80
2023-03-02T14:47:16.593Z,62.10
2023-03-02T14:49:45.346Z,62.50
2023-03-02T14:52:20.485Z,65.50
2023-03-02T14:54:54.120Z,65.30
2023-03-02T14:57:26.248Z,65.80
2023-03-02T14:59:59.861Z,66.50
2023-03-02T15:02:28.857Z,65.90
2023-03-02T15:04:57.851Z,65.20
2023-03-02T15:07:28.772Z,67.60
2023-03-02T15:12:27.128Z,67.20
2023-03-02T15:14:56.964Z,65.70
2023-03-02T15:17:28.421Z,65.10
2023-03-02T15:19:56.861Z,65.70
2023-03-02T15:22:28.713Z,67.10
2023-03-02T15:27:25.910Z,65.80
2023-03-02T15:29:56.689Z,65.80
2023-03-02T15:32:26.869Z,66.90
2023-03-02T15:37:28.157Z,68.10
2023-03-02T15:39:56.940Z,67.50
2023-03-02T15:42:25.513Z,67.50
2023-03-02T15:44:54.038Z,67.10
2023-03-02T15:47:22.475Z,67.70
2023-03-02T15:49:52.356Z,69.60
2023-03-02T15:52:21.943Z,69.90
2023-03-02T15:54:50.447Z,69.90
2023-03-02T15:57:18.963Z,69.60
2023-03-02T15:59:47.939Z,71.00
2023-03-02T16:02:16.240Z,70.30
2023-03-02T16:04:44.893Z,71.10
2023-03-02T16:07:14.820Z,72.80
2023-03-02T16:09:45.354Z,72.20
2023-03-02T16:12:13.694Z,73.00
2023-03-02T16:14:42.178Z,72.90
2023-03-02T16:17:11.826Z,74.20
2023-03-02T16:19:40.181Z,75.80
2023-03-02T16:22:08.476Z,76.70
2023-03-02T16:24:40.350Z,77.70
2023-03-02T16:27:10.224Z,78.70
2023-03-02T16:29:38.618Z,79.20
2023-03-02T16:32:09.267Z,79.90
2023-03-02T16:34:37.945Z,80.50
2023-03-02T16:37:06.284Z,81.50
2023-03-02T16:39:34.742Z,82.80
2023-03-02T16:42:05.176Z,83.80
2023-03-02T16:44:33.498Z,84.70
2023-03-02T16:47:01.818Z,84.90
2023-03-02T16:49:30.282Z,85.90
2023-03-02T16:51:59.889Z,86.30
2023-03-02T16:54:28.916Z,87.30
2023-03-02T16:56:57.280Z,87.90
2023-03-02T16:59:27.052Z,88.20
2023-03-02T17:01:55.351Z,88.80
2023-03-02T17:04:23.708Z,89.50
2023-03-02T17:07:00.450Z,90.10
2023-03-02T17:09:29.491Z,90.40
2023-03-02T17:11:58.432Z,90.90
2023-03-02T17:14:28.940Z,91.20
2023-03-02T17:16:57.876Z,91.70
2023-03-02T17:19:27.073Z,92.20
2023-03-02T17:21:58.269Z,92.60
2023-03-02T17:29:24.722Z,93.50
2023-03-02T17:31:54.843Z,93.70
2023-03-02T17:34:23.505Z,94.00
2023-03-02T17:36:51.838Z,94.20
2023-03-02T17:41:49.071Z,94.70
2023-03-02T17:44:17.733Z,95.10
2023-03-02T17:46:46.588Z,95.40
2023-03-02T17:49:16.209Z,95.70
2023-03-02T17:54:14.280Z,96.30
2023-03-02T17:56:42.713Z,96.60
2023-03-02T17:59:12.499Z,96.90
2023-03-02T18:04:11.997Z,97.70
2023-03-02T18:06:42.010Z,97.80
2023-03-02T18:11:41.421Z,98.40
2023-03-02T18:14:13.609Z,98.50
2023-03-02T18:16:42.166Z,99.10
2023-03-02T18:19:10.722Z,99.20
2023-03-02T18:21:40.305Z,99.40
2023-03-02T18:24:10.993Z,99.60
2023-03-02T18:26:39.519Z,99.80
2023-03-02T18:31:36.863Z,99.90
2023-03-02T18:36:34.394Z,99.90
2023-03-02T18:41:33.937Z,99.90
2023-03-02T18:44:03.616Z,99.90
2023-03-02T18:46:33.432Z,99.90
2023-03-02T18:49:01.801Z,99.90
2023-03-02T18:51:30.090Z,99.90
2023-03-02T18:53:58.509Z,99.90
2023-03-02T19:01:25.969Z,99.90
2023-03-02T19:03:56.870Z,99.90
2023-03-02T19:06:25.180Z,99.90
2023-03-02T19:13:55.114Z,99.90
2023-03-02T19:16:24.892Z,99.90
2023-03-02T19:18:53.243Z,99.90
2023-03-02T19:21:21.747Z,99.90
2023-03-02T19:23:50.019Z,99.90
2023-03-02T19:26:18.391Z,99.90
2023-03-02T19:28:47.066Z,99.90
2023-03-02T19:33:46.185Z,99.90
2023-03-02T19:36:15.187Z,99.90
2023-03-02T19:38:44.584Z,99.90
2023-03-02T19:41:16.641Z,99.90
2023-03-02T19:43:46.285Z,99.90
2023-03-02T19:46:15.589Z,99.90
2023-03-02T19:48:45.688Z,99.90
2023-03-02T19:51:15.854Z,99.90
2023-03-02T19:53:45.958Z,99.90
2023-03-02T19:56:16.211Z,99.90
2023-03-02T19:58:50.010Z,99.90
2023-03-02T20:01:24.843Z,99.90
2023-03-02T20:03:56.082Z,99.90
2023-03-02T20:06:30.504Z,99.90
2023-03-02T20:09:00.654Z,99.90
2023-03-02T20:14:02.146Z,99.90
2023-03-02T20:16:31.381Z,99.90
2023-03-02T20:19:03.339Z,99.90
2023-03-02T20:24:03.177Z,99.90
2023-03-02T20:29:04.963Z,99.90
2023-03-02T20:31:35.265Z,99.90
2023-03-02T20:34:08.898Z,99.90
2023-03-02T20:36:38.510Z,99.90
2023-03-02T20:39:13.273Z,99.90
2023-03-02T20:41:43.197Z,99.90
2023-03-02T20:44:14.800Z,99.90
2023-03-02T20:46:49.595Z,99.90
2023-03-02T20:49:19.573Z,99.90
2023-03-02T20:51:54.801Z,99.90
2023-03-02T20:54:30.160Z,99.90
2023-03-02T20:56:59.369Z,99.90
2023-03-02T20:59:28.665Z,99.90
2023-03-02T21:01:57.580Z,99.90
2023-03-02T21:04:27.927Z,99.90
2023-03-02T21:06:56.279Z,99.90
2023-03-02T21:11:53.616Z,99.90
2023-03-02T21:14:22.271Z,99.90
2023-03-02T21:16:50.583Z,99.90
2023-03-02T21:19:20.222Z,99.90
2023-03-02T21:21:49.906Z,99.90
2023-03-02T21:24:20.719Z,99.90
2023-03-02T21:26:53.000Z,99.90
2023-03-02T21:29:24.578Z,99.90
2023-03-02T21:31:52.988Z,99.90
2023-03-02T21:34:22.682Z,99.90
2023-03-02T21:36:53.985Z,99.90
2023-03-02T21:39:23.912Z,99.90
2023-03-02T21:41:52.962Z,99.90
2023-03-02T21:46:50.838Z,99.90
2023-03-02T21:49:21.992Z,99.90
2023-03-02T21:51:51.870Z,99.90
2023-03-02T21:54:20.257Z,99.90
2023-03-02T21:56:48.655Z,99.90
2023-03-02T22:01:45.941Z,99.90
2023-03-02T22:04:14.575Z,99.90
2023-03-02T22:06:42.940Z,99.90
2023-03-02T22:09:13.263Z,99.90
2023-03-02T22:11:41.544Z,99.90
2023-03-02T22:14:15.548Z,99.90
2023-03-02T22:16:47.933Z,99.90
2023-03-02T22:19:27.683Z,99.90
2023-03-02T22:21:57.692Z,99.90
2023-03-02T22:24:29.945Z,99.90
2023-03-02T22:27:10.461Z,99.90
2023-03-02T22:29:44.804Z,99.90
2023-03-02T22:32:19.868Z,99.90
2023-03-02T22:34:54.325Z,99.90
2023-03-02T22:37:25.815Z,99.90
2023-03-02T22:39:58.861Z,99.90
2023-03-02T22:42:31.257Z,99.90
2023-03-02T22:45:12.991Z,99.90
2023-03-02T22:47:41.725Z,99.90
2023-03-02T22:50:23.704Z,99.90
2023-03-02T22:52:53.791Z,99.90
2023-03-02T22:55:39.068Z,99.90
2023-03-02T22:58:42.629Z,99.90
2023-03-02T23:01:22.980Z,99.90
2023-03-02T23:03:54.499Z,99.90
2023-03-02T23:06:31.779Z,99.90
2023-03-02T23:09:03.073Z,99.90
2023-03-02T23:11:38.734Z,99.90
2023-03-02T23:14:23.001Z,99.90
2023-03-02T23:16:59.016Z,99.90
2023-03-02T23:19:30.518Z,99.90
2023-03-02T23:21:59.743Z,99.90
2023-03-02T23:24:28.183Z,99.90
2023-03-02T23:27:02.004Z,99.90
2023-03-02T23:29:30.643Z,99.90
2023-03-02T23:36:59.921Z,99.90
2023-03-02T23:39:29.026Z,99.90
2023-03-02T23:44:29.021Z,99.90
2023-03-02T23:46:57.539Z,99.90
2023-03-02T23:49:25.926Z,99.90
2023-03-02T23:51:54.370Z,99.90
2023-03-02T23:54:23.877Z,99.90
2023-03-02T23:56:52.213Z,99.90
2023-03-02T23:59:21.902Z,99.90
